Time;durP1;ratioP1;P1;durP2;ratioP2;P2;SDS_P1;SDS_P2;PMS_P1;PMS_P2;Temp;Humidity;BMP_temperature;BMP_pressure;BME280_temperature;BME280_humidity;BME280_pressure;Samples;Min_cycle;Max_cycle;Signal;HPM_P1;HPM_P2
2022/06/05 00:00:21;;;;;;;8.23;6.05;;;;;;;17.95;100.00;98468.28;5045865;28;20216;-69
2022/06/05 00:02:54;;;;;;;7.78;5.97;;;;;;;17.93;100.00;98459.50;5065365;28;20062;-69
2022/06/05 00:05:26;;;;;;;8.65;6.05;;;;;;;17.91;100.00;98472.03;5061574;28;20033;-69
2022/06/05 00:08:12;;;;;;;11.27;6.30;;;;;;;18.00;100.00;98476.91;5062263;28;20312;-69
2022/06/05 00:10:55;;;;;;;11.25;6.13;;;;;;;18.01;100.00;98473.28;5049145;28;20330;-69
2022/06/05 00:13:37;;;;;;;9.65;5.53;;;;;;;17.86;100.00;98460.75;5048875;28;20025;-69
2022/06/05 00:16:03;;;;;;;;;;;;;;;18.07;100.00;98457.84;5062544;28;20044;-69
2022/06/05 00:18:32;;;;;;;7.25;5.32;;;;;;;17.99;100.00;98464.50;5065432;28;20224;-69
2022/06/05 00:20:58;;;;;;;8.40;6.18;;;;;;;18.01;100.00;98473.28;5048747;28;20029;-69
2022/06/05 00:23:24;;;;;;;9.27;6.35;;;;;;;17.84;100.00;98476.81;5047595;28;20017;-69
2022/06/05 00:26:24;;;;;;;8.85;6.15;;;;;;;17.74;100.00;98472.91;5053375;28;20024;-69
2022/06/05 00:29:16;;;;;;;9.13;5.70;;;;;;;17.71;100.00;98465.06;5044238;28;20045;-69
2022/06/05 00:31:57;;;;;;;9.23;6.72;;;;;;;17.70;100.00;98457.16;5047580;28;20045;-69
2022/06/05 00:34:23;;;;;;;12.10;6.88;;;;;;;17.72;100.00;98445.47;5064455;28;20029;-69
2022/06/05 00:37:01;;;;;;;11.23;6.50;;;;;;;17.72;100.00;98429.50;5066514;28;20404;-69
2022/06/05 00:39:53;;;;;;;9.38;7.50;;;;;;;17.68;100.00;98411.97;5053011;28;20029;-69
2022/06/05 00:42:23;;;;;;;10.40;6.88;;;;;;;17.70;100.00;98403.91;5055741;28;20194;-69
2022/06/05 00:44:52;;;;;;;8.20;6.10;;;;;;;17.79;100.00;98387.47;5048218;28;20052;-69
2022/06/05 00:47:27;;;;;;;10.40;6.53;;;;;;;17.93;100.00;98371.63;5048195;28;20032;-69
2022/06/05 00:50:09;;;;;;;9.52;6.63;;;;;;;17.93;100.00;98368.97;5064569;28;20232;-69
2022/06/05 00:52:39;;;;;;;10.48;7.18;;;;;;;18.09;100.00;98332.56;5066364;28;20025;-69
2022/06/05 00:55:05;;;;;;;11.93;6.85;;;;;;;18.15;100.00;98282.50;5066019;28;20028;-69
2022/06/05 00:57:33;;;;;;;9.20;6.60;;;;;;;18.32;100.00;98250.44;5064971;28;20059;-69
2022/06/05 01:00:08;;;;;;;9.10;6.95;;;;;;;18.45;100.00;98221.34;5047646;28;20029;-68
2022/06/05 01:02:34;;;;;;;12.65;7.40;;;;;;;18.44;100.00;98230.28;5052174;28;20075;-68
2022/06/05 01:04:59;;;;;;;9.07;7.07;;;;;;;18.39;100.00;98209.25;5046665;28;20326;-68
2022/06/05 01:07:25;;;;;;;9.43;7.30;;;;;;;18.36;100.00;98204.09;5047808;28;20029;-68
2022/06/05 01:09:52;;;;;;;10.05;7.85;;;;;;;18.30;100.00;98192.88;5062072;28;20386;-68
2022/06/05 01:12:40;;;;;;;8.85;6.90;;;;;;;18.27;100.00;98204.56;5063742;28;20025;-68
2022/06/05 01:15:12;;;;;;;9.43;7.25;;;;;;;18.22;100.00;98205.78;5045749;28;20092;-68
2022/06/05 01:18:02;;;;;;;12.68;7.57;;;;;;;18.29;100.00;98207.16;5060450;28;20020;-68
2022/06/05 01:21:05;;;;;;;12.98;7.57;;;;;;;18.29;100.00;98220.47;5053247;28;20051;-68
2022/06/05 01:23:45;;;;;;;14.00;7.93;;;;;;;18.25;100.00;98216.22;5058922;28;20028;-68
2022/06/05 01:26:19;;;;;;;12.07;6.47;;;;;;;18.19;100.00;98211.28;5065845;28;20320;-68
2022/06/05 01:28:57;;;;;;;7.65;5.63;;;;;;;18.29;100.00;98212.47;5056126;28;20025;-68
2022/06/05 01:31:35;;;;;;;9.27;5.90;;;;;;;18.30;100.00;98219.50;5047817;28;20063;-68
2022/06/05 01:34:07;;;;;;;6.47;5.20;;;;;;;18.44;100.00;98207.16;5053058;28;20044;-68
2022/06/05 01:36:44;;;;;;;12.80;6.07;;;;;;;18.34;100.00;98195.28;5047536;28;20025;-68
2022/06/05 01:39:13;;;;;;;9.07;5.82;;;;;;;18.39;100.00;98181.72;5056981;28;20016;-68
2022/06/05 01:41:45;;;;;;;9.25;6.70;;;;;;;18.38;100.00;98159.53;5065613;28;20063;-68
2022/06/05 01:44:16;;;;;;;7.97;6.47;;;;;;;18.43;100.00;98146.81;5047030;28;20017;-68
2022/06/05 01:46:41;;;;;;;8.15;5.78;;;;;;;18.50;100.00;98131.31;5047220;28;20037;-68
2022/06/05 01:49:14;;;;;;;11.45;7.28;;;;;;;18.53;100.00;98112.47;5056250;28;20080;-68
2022/06/05 01:51:54;;;;;;;10.30;7.32;;;;;;;18.57;100.00;98112.22;5047283;28;20047;-68
2022/06/05 01:54:28;;;;;;;9.90;7.03;;;;;;;18.56;100.00;98099.84;5046084;28;20300;-68
2022/06/05 01:56:57;;;;;;;12.02;7.03;;;;;;;18.57;100.00;98103.38;5048642;28;20031;-68
2022/06/05 01:59:34;;;;;;;12.25;6.95;;;;;;;18.59;100.00;98093.47;5054048;28;20111;-68
2022/06/05 02:02:02;;;;;;;11.13;7.55;;;;;;;18.64;100.00;98059.41;5057060;28;20069;-68
2022/06/05 02:04:39;;;;;;;10.70;6.78;;;;;;;18.59;100.00;98056.16;5062769;28;20031;-68
2022/06/05 02:07:25;;;;;;;10.48;6.43;;;;;;;18.60;100.00;98068.50;5052565;28;20024;-68
2022/06/05 02:10:01;;;;;;;8.70;6.43;;;;;;;18.60;100.00;98097.81;5049351;28;20025;-68
2022/06/05 02:12:26;;;;;;;9.10;6.05;;;;;;;18.61;100.00;98112.91;5057236;28;20031;-68
2022/06/05 02:14:52;;;;;;;9.02;6.00;;;;;;;18.58;100.00;98145.91;5064859;28;20029;-68
2022/06/05 02:17:18;;;;;;;9.57;6.30;;;;;;;18.50;100.00;98152.63;5064670;28;20025;-68
2022/06/05 02:19:44;;;;;;;7.70;5.38;;;;;;;18.45;100.00;98166.22;5057163;28;20024;-68
2022/06/05 02:22:24;;;;;;;7.43;5.05;;;;;;;18.40;100.00;98194.09;5063857;28;20032;-68
2022/06/05 02:24:49;;;;;;;8.88;5.40;;;;;;;18.33;100.00;98214.00;5064756;28;20035;-68
2022/06/05 02:27:20;;;;;;;7.97;5.55;;;;;;;18.30;100.00;98228.38;5062478;28;20048;-68
2022/06/05 02:29:46;;;;;;;8.05;5.57;;;;;;;18.28;100.00;98221.41;5049957;28;20317;-68
2022/06/05 02:32:31;;;;;;;6.68;5.28;;;;;;;18.23;100.00;98236.78;5050687;28;20024;-68
2022/06/05 02:35:09;;;;;;;8.50;5.55;;;;;;;18.15;100.00;98236.34;5060565;28;20355;-68
2022/06/05 02:38:08;;;;;;;8.18;5.13;;;;;;;18.12;100.00;98244.50;5053002;28;20044;-68
2022/06/05 02:40:49;;;;;;;6.50;4.95;;;;;;;18.12;100.00;98239.19;5044986;28;20225;-68
2022/06/05 02:43:36;;;;;;;7.85;5.65;;;;;;;18.09;100.00;98242.88;5061178;28;20325;-68
2022/06/05 02:46:20;;;;;;;7.80;5.38;;;;;;;18.06;100.00;98258.16;5064430;28;20025;-68
2022/06/05 02:49:12;;;;;;;7.47;5.63;;;;;;;18.03;100.00;98258.38;5058259;28;20029;-68
2022/06/05 02:51:43;;;;;;;7.80;5.53;;;;;;;18.06;100.00;98332.75;5048875;28;20337;-68
2022/06/05 02:54:21;;;;;;;10.52;5.95;;;;;;;18.06;100.00;98354.91;5044702;28;20025;-68
2022/06/05 02:56:46;;;;;;;8.00;5.57;;;;;;;18.17;100.00;98317.06;5052433;28;20058;-68
2022/06/05 02:59:12;;;;;;;7.55;5.35;;;;;;;18.16;100.00;98341.97;5054696;28;20029;-68
2022/06/05 03:04:22;;;;;;;7.88;6.13;;;;;;;18.15;100.00;98380.19;5045657;28;20363;-68
2022/06/05 03:06:47;;;;;;;9.23;6.05;;;;;;;18.10;100.00;98387.59;5045645;28;20025;-68
2022/06/05 03:09:12;;;;;;;9.50;6.95;;;;;;;18.08;100.00;98389.47;5054229;28;20635;-68
2022/06/05 03:11:38;;;;;;;9.55;6.53;;;;;;;18.08;100.00;98384.13;5051197;28;20021;-68
2022/06/05 03:14:04;;;;;;;10.70;6.72;;;;;;;18.06;100.00;98370.03;5052371;28;20317;-68
2022/06/05 03:16:29;;;;;;;11.13;7.28;;;;;;;18.08;100.00;98373.47;5060322;28;20021;-68
2022/06/05 03:18:55;;;;;;;9.95;7.15;;;;;;;18.03;100.00;98364.91;5046040;28;20305;-68
2022/06/05 03:21:20;;;;;;;13.52;7.47;;;;;;;18.01;100.00;98351.66;5045453;28;20072;-68
2022/06/05 03:23:47;;;;;;;10.05;7.05;;;;;;;18.04;100.00;98342.63;5063552;28;20219;-68
2022/06/05 03:26:13;;;;;;;12.45;7.93;;;;;;;17.97;100.00;98339.41;5063748;28;20033;-68
2022/06/05 03:28:39;;;;;;;14.32;8.90;;;;;;;18.05;100.00;98320.38;5058106;28;20084;-68
2022/06/05 03:31:06;;;;;;;13.50;9.25;;;;;;;18.00;100.00;98317.13;5044365;28;20025;-68
2022/06/05 03:33:31;;;;;;;11.55;8.65;;;;;;;17.97;100.00;98319.94;5058350;28;20036;-68
2022/06/05 03:35:57;;;;;;;12.07;8.73;;;;;;;17.94;100.00;98328.09;5063561;28;20024;-68
2022/06/05 03:38:22;;;;;;;12.57;8.82;;;;;;;17.93;100.00;98342.31;5056211;28;20021;-68
2022/06/05 03:40:48;;;;;;;12.10;8.20;;;;;;;17.89;100.00;98362.06;5063282;28;20100;-68
2022/06/05 03:43:15;;;;;;;13.00;8.75;;;;;;;17.86;100.00;98378.22;5059504;28;20029;-68
2022/06/05 03:45:41;;;;;;;12.15;8.50;;;;;;;17.82;100.00;98403.28;5063307;28;20029;-68
2022/06/05 03:48:08;;;;;;;15.23;9.27;;;;;;;17.89;100.00;98428.66;5048885;28;20276;-68
2022/06/05 03:50:33;;;;;;;10.05;7.55;;;;;;;17.83;100.00;98463.56;5062186;28;20029;-68
2022/06/05 03:52:59;;;;;;;11.98;8.02;;;;;;;17.82;100.00;98467.19;5063400;28;20232;-68
2022/06/05 03:55:25;;;;;;;10.75;7.90;;;;;;;17.79;100.00;98456.69;5063175;28;20217;-68
2022/06/05 03:57:51;;;;;;;12.55;8.02;;;;;;;17.82;100.00;98476.03;5052297;28;20031;-68
2022/06/05 04:00:18;;;;;;;12.32;8.65;;;;;;;17.83;100.00;98508.84;5060052;28;20021;-68
2022/06/05 04:02:44;;;;;;;13.93;9.10;;;;;;;17.83;100.00;98500.84;5063102;28;20036;-68
2022/06/05 04:05:13;;;;;;;13.93;9.80;;;;;;;17.83;100.00;98463.56;5062920;28;20025;-68
2022/06/05 04:07:39;;;;;;;15.40;9.65;;;;;;;17.86;100.00;98463.41;5058457;28;20071;-68
2022/06/05 04:10:06;;;;;;;11.73;8.43;;;;;;;17.83;100.00;98482.22;5044688;28;20092;-68
2022/06/05 04:12:31;;;;;;;11.70;8.65;;;;;;;17.81;100.00;98479.63;5044823;28;20028;-68
2022/06/05 04:14:59;;;;;;;11.02;7.63;;;;;;;17.78;100.00;98461.13;5044683;28;20232;-68
2022/06/05 04:17:24;;;;;;;11.02;6.82;;;;;;;17.81;100.00;98447.66;5049980;28;20024;-68
2022/06/05 04:19:52;;;;;;;13.27;7.55;;;;;;;17.83;100.00;98431.63;5050573;28;20025;-68
2022/06/05 04:22:17;;;;;;;11.80;8.18;;;;;;;17.80;100.00;98405.16;5043660;28;20027;-68
2022/06/05 04:24:42;;;;;;;12.77;8.13;;;;;;;17.74;100.00;98394.81;5043643;28;20087;-68
2022/06/05 04:27:08;;;;;;;14.13;8.10;;;;;;;17.73;100.00;98409.06;5044708;28;20017;-68
2022/06/05 04:29:33;;;;;;;10.52;6.90;;;;;;;17.71;100.00;98416.28;5053353;28;20021;-68
2022/06/05 04:31:59;;;;;;;11.13;7.25;;;;;;;17.69;100.00;98428.81;5061710;28;20086;-68
2022/06/05 04:34:24;;;;;;;11.82;8.00;;;;;;;17.66;100.00;98432.50;5043696;28;20021;-68
2022/06/05 04:36:49;;;;;;;11.38;8.00;;;;;;;17.65;100.00;98417.44;5062777;28;20028;-68
2022/06/05 04:39:15;;;;;;;11.57;7.95;;;;;;;17.66;100.00;98410.34;5060646;28;20029;-68
2022/06/05 04:41:41;;;;;;;7.90;5.88;;;;;;;17.67;100.00;98382.78;5053393;28;20048;-68
2022/06/05 04:44:10;;;;;;;9.50;6.88;;;;;;;17.65;100.00;98374.88;5061327;28;20220;-68
2022/06/05 04:46:36;;;;;;;10.85;8.23;;;;;;;17.63;100.00;98370.56;5065025;28;20028;-69
2022/06/05 04:49:03;;;;;;;14.77;8.75;;;;;;;17.63;100.00;98366.13;5065036;28;20025;-69
2022/06/05 04:51:28;;;;;;;13.88;7.53;;;;;;;17.65;100.00;98368.69;5066151;28;20041;-69
2022/06/05 04:53:56;;;;;;;9.10;6.85;;;;;;;17.66;100.00;98370.41;5047118;28;20041;-69
2022/06/05 04:56:24;;;;;;;10.57;7.35;;;;;;;17.67;100.00;98372.13;5047083;28;20013;-69
2022/06/05 04:58:50;;;;;;;10.35;6.07;;;;;;;17.66;100.00;98365.09;5048198;28;20220;-69
2022/06/05 05:01:21;;;;;;;11.60;6.95;;;;;;;17.68;100.00;98347.25;5061607;28;20080;-69
2022/06/05 05:03:50;;;;;;;10.95;7.07;;;;;;;17.67;100.00;98327.75;5065929;28;20035;-69
2022/06/05 05:06:15;;;;;;;10.50;7.13;;;;;;;17.70;100.00;98313.41;5066156;28;20340;-69
2022/06/05 05:08:41;;;;;;;15.82;8.38;;;;;;;17.72;100.00;98295.56;5052283;28;20068;-69
2022/06/05 05:11:06;;;;;;;12.35;8.23;;;;;;;17.70;100.00;98276.16;5057892;28;20025;-69
2022/06/05 05:13:32;;;;;;;12.88;8.10;;;;;;;17.74;100.00;98235.09;5046650;28;20249;-69
2022/06/05 05:15:57;;;;;;;12.48;7.82;;;;;;;17.70;100.00;98242.41;5045714;28;20021;-69
2022/06/05 05:18:24;;;;;;;12.10;7.78;;;;;;;17.70;100.00;98244.19;5058610;28;20304;-69
2022/06/05 05:20:49;;;;;;;11.60;7.53;;;;;;;17.73;100.00;98233.38;5063530;28;20074;-69
2022/06/05 05:23:16;;;;;;;10.95;7.93;;;;;;;17.77;100.00;98240.25;5046806;28;20332;-69
2022/06/05 05:25:41;;;;;;;14.95;9.20;;;;;;;17.76;100.00;98238.56;5059852;28;20079;-69
2022/06/05 05:28:07;;;;;;;13.25;9.15;;;;;;;17.80;100.00;98240.09;5053717;28;20036;-69
2022/06/05 05:30:33;;;;;;;14.85;8.05;;;;;;;17.86;100.00;98231.78;5045416;28;20140;-69
2022/06/05 05:32:59;;;;;;;13.60;9.00;;;;;;;17.90;100.00;98236.84;5057933;28;20292;-69
2022/06/05 05:35:24;;;;;;;9.85;6.45;;;;;;;17.92;100.00;98234.09;5054911;28;20021;-69
2022/06/05 05:37:50;;;;;;;9.43;6.47;;;;;;;18.04;100.00;98222.78;5053817;28;20025;-69
2022/06/05 05:42:59;;;;;;;12.07;7.65;;;;;;;18.14;100.00;98234.66;5045964;28;20277;-69
2022/06/05 05:45:24;;;;;;;12.07;7.90;;;;;;;18.16;100.00;98225.63;5046170;28;20025;-68
2022/06/05 05:47:50;;;;;;;12.57;7.15;;;;;;;18.18;100.00;98236.19;5052612;28;20032;-68
2022/06/05 05:50:16;;;;;;;11.07;7.38;;;;;;;18.21;100.00;98225.34;5045956;28;20037;-68
2022/06/05 05:52:43;;;;;;;13.60;7.32;;;;;;;18.28;100.00;98227.59;5044463;28;20025;-68
2022/06/05 05:55:14;;;;;;;11.38;7.63;;;;;;;18.35;100.00;98215.63;5044896;28;20029;-68
2022/06/05 05:57:40;;;;;;;8.20;6.22;;;;;;;18.39;100.00;98214.56;5049924;28;20029;-68
2022/06/05 06:00:09;;;;;;;13.05;7.38;;;;;;;18.39;100.00;98192.38;5053878;28;20146;-69
2022/06/05 06:02:35;;;;;;;12.43;6.45;;;;;;;18.47;100.00;98179.47;5063025;28;20087;-69
2022/06/05 06:05:02;;;;;;;7.78;5.68;;;;;;;18.49;100.00;98172.25;5063390;28;20025;-68
2022/06/05 06:07:28;;;;;;;11.52;6.35;;;;;;;18.61;100.00;98177.72;5053000;28;20096;-68
2022/06/05 06:09:54;;;;;;;12.48;6.68;;;;;;;18.68;100.00;98178.22;5048216;28;20029;-68
2022/06/05 06:12:20;;;;;;;8.85;6.30;;;;;;;18.80;100.00;98188.16;5062350;28;20031;-68
2022/06/05 06:14:45;;;;;;;8.25;6.05;;;;;;;19.04;100.00;98181.34;5060897;28;20044;-68
2022/06/05 06:17:10;;;;;;;8.82;6.63;;;;;;;19.39;100.00;98177.44;5059252;28;20036;-69
2022/06/05 06:19:36;;;;;;;9.38;6.38;;;;;;;19.35;100.00;98175.91;5063688;28;20036;-67
2022/06/05 06:22:02;;;;;;;10.38;6.50;;;;;;;19.53;100.00;98185.47;5063748;28;20033;-68
2022/06/05 06:24:27;;;;;;;7.28;5.45;;;;;;;19.59;100.00;98185.06;5064000;28;20020;-68
2022/06/05 06:26:53;;;;;;;8.32;5.78;;;;;;;19.69;100.00;98196.91;5063588;28;20025;-68
2022/06/05 06:29:18;;;;;;;6.68;5.13;;;;;;;19.63;100.00;98207.09;5058332;28;20029;-68
2022/06/05 06:31:44;;;;;;;8.25;5.68;;;;;;;19.49;100.00;98199.91;5062233;28;20021;-68
2022/06/05 06:34:09;;;;;;;7.05;4.85;;;;;;;19.60;100.00;98201.94;5047010;28;20335;-68
2022/06/05 06:36:35;;;;;;;10.90;5.75;;;;;;;19.50;100.00;98195.44;5044308;28;20313;-67
2022/06/05 06:39:01;;;;;;;7.35;5.80;;;;;;;19.39;100.00;98197.94;5058843;28;20032;-67
2022/06/05 06:41:27;;;;;;;11.75;6.30;;;;;;;19.41;100.00;98212.91;5047487;28;20029;-67
2022/06/05 06:43:53;;;;;;;8.50;5.60;;;;;;;19.36;100.00;98220.31;5056678;28;20040;-67
2022/06/05 06:46:19;;;;;;;10.50;6.00;;;;;;;19.39;100.00;98208.63;5044504;28;20037;-67
2022/06/05 06:48:45;;;;;;;7.45;5.25;;;;;;;19.36;100.00;98209.63;5043892;28;20025;-67
2022/06/05 06:51:12;;;;;;;7.97;4.63;;;;;;;19.37;100.00;98222.06;5044861;28;20109;-67
2022/06/05 06:53:39;;;;;;;7.88;4.80;;;;;;;19.52;100.00;98233.59;5046801;28;20029;-67
2022/06/05 06:56:15;;;;;;;7.88;5.07;;;;;;;19.57;100.00;98251.03;5059093;28;20037;-68
2022/06/05 06:58:41;;;;;;;7.07;4.63;;;;;;;19.64;100.00;98249.72;5044637;28;20031;-68
2022/06/05 07:01:07;;;;;;;11.73;5.43;;;;;;;19.64;100.00;98244.38;5044766;28;20021;-68
2022/06/05 07:03:34;;;;;;;6.22;4.80;;;;;;;19.64;100.00;98240.88;5058372;28;20088;-68
2022/06/05 07:06:06;;;;;;;8.18;4.78;;;;;;;19.72;100.00;98239.44;5061511;28;20040;-68
2022/06/05 07:08:32;;;;;;;5.90;4.85;;;;;;;19.73;100.00;98234.94;5054110;28;20025;-68
2022/06/05 07:10:58;;;;;;;8.25;5.18;;;;;;;19.82;100.00;98219.19;5062383;28;20036;-68
2022/06/05 07:13:24;;;;;;;6.65;4.82;;;;;;;19.83;100.00;98220.91;5061556;28;20364;-68
2022/06/05 07:15:50;;;;;;;7.65;4.50;;;;;;;19.94;100.00;98218.44;5046157;28;20221;-68
2022/06/05 07:18:17;;;;;;;7.47;4.80;;;;;;;20.00;100.00;98211.84;5043997;28;20096;-68
2022/06/05 07:20:44;;;;;;;7.38;4.95;;;;;;;20.15;99.21;98210.91;5048818;28;20032;-68
2022/06/05 07:23:10;;;;;;;8.05;4.93;;;;;;;20.13;100.00;98215.47;5043237;28;20018;-68
2022/06/05 07:25:36;;;;;;;7.70;4.95;;;;;;;20.09;100.00;98217.44;5042607;28;20028;-68
2022/06/05 07:28:03;;;;;;;7.88;5.15;;;;;;;20.09;100.00;98216.59;5044042;28;20025;-68
2022/06/05 07:30:28;;;;;;;10.18;5.32;;;;;;;20.18;100.00;98213.34;5044083;28;20190;-69
2022/06/05 07:32:54;;;;;;;9.63;5.85;;;;;;;20.16;100.00;98218.81;5044195;28;20032;-69
2022/06/05 07:35:19;;;;;;;7.35;5.63;;;;;;;20.04;100.00;98219.56;5044398;28;20221;-69
2022/06/05 07:37:45;;;;;;;8.15;5.43;;;;;;;20.18;100.00;98232.91;5060974;28;20020;-69
2022/06/05 07:40:12;;;;;;;7.38;5.50;;;;;;;20.50;99.59;98229.03;5064195;28;20028;-69
2022/06/05 07:42:39;;;;;;;8.50;6.00;;;;;;;20.58;100.00;98248.13;5063957;28;20031;-69
2022/06/05 07:45:05;;;;;;;8.10;5.93;;;;;;;20.49;97.23;98237.13;5063979;28;20037;-69
2022/06/05 07:47:31;;;;;;;8.88;6.18;;;;;;;20.43;98.26;98242.88;5064011;28;20101;-69
2022/06/05 07:49:56;;;;;;;8.13;5.65;;;;;;;20.37;98.35;98228.09;5063918;28;20052;-69
2022/06/05 07:55:06;;;;;;;8.23;5.97;;;;;;;20.34;100.00;98239.00;5063949;28;20048;-69
2022/06/05 07:57:31;;;;;;;10.25;6.68;;;;;;;20.29;100.00;98251.81;5063870;28;20020;-69
2022/06/05 07:59:57;;;;;;;9.25;5.70;;;;;;;20.16;99.36;98250.03;5064328;28;20028;-67
2022/06/05 08:02:25;;;;;;;8.45;5.95;;;;;;;20.11;100.00;98247.59;5063684;28;20020;-68
2022/06/05 08:04:51;;;;;;;8.40;6.28;;;;;;;20.13;100.00;98251.09;5043932;28;20075;-67
2022/06/05 08:07:22;;;;;;;7.88;6.45;;;;;;;20.13;100.00;98245.75;5052365;28;20312;-68
2022/06/05 08:09:48;;;;;;;10.73;7.25;;;;;;;20.13;100.00;98251.09;5044295;28;20100;-68
2022/06/05 08:12:16;;;;;;;11.35;6.50;;;;;;;20.09;100.00;98249.50;5054965;28;20024;-68
2022/06/05 08:14:44;;;;;;;8.95;5.75;;;;;;;20.08;100.00;98237.09;5064183;28;20380;-68
2022/06/05 08:17:13;;;;;;;8.02;6.38;;;;;;;20.22;100.00;98239.78;5058560;28;20021;-66
2022/06/05 08:19:41;;;;;;;8.65;6.50;;;;;;;20.20;100.00;98247.06;5045929;28;20337;-68
2022/06/05 08:22:09;;;;;;;8.35;6.60;;;;;;;20.19;100.00;98245.31;5046954;28;20017;-68
2022/06/05 08:24:34;;;;;;;8.73;6.80;;;;;;;20.26;100.00;98246.66;5047635;28;20327;-68
2022/06/05 08:27:00;;;;;;;11.80;5.95;;;;;;;20.39;100.00;98247.59;5049367;28;20033;-68
2022/06/05 08:29:25;;;;;;;10.27;6.32;;;;;;;20.82;100.00;98234.94;5054008;28;20079;-68
2022/06/05 08:31:53;;;;;;;9.25;6.85;;;;;;;22.01;96.72;98234.66;5048175;28;20213;-68
2022/06/05 08:34:19;;;;;;;9.18;6.38;;;;;;;23.00;91.54;98232.66;5048132;28;20281;-68
2022/06/05 08:36:44;;;;;;;8.65;6.03;;;;;;;24.08;87.00;98234.00;5046575;28;20028;-68
2022/06/05 08:42:02;;;;;;;6.90;5.80;;;;;;;24.14;82.61;98239.75;5047350;28;20097;-68
2022/06/05 08:44:46;;;;;;;10.32;5.65;;;;;;;23.84;82.20;98242.16;5047202;28;20055;-68
2022/06/05 08:47:20;;;;;;;8.50;6.28;;;;;;;23.17;82.84;98241.13;5047305;28;20029;-68
2022/06/05 08:50:23;;;;;;;11.38;6.38;;;;;;;22.96;87.37;98236.50;5047031;28;20030;-68
2022/06/05 08:52:54;;;;;;;9.18;5.70;;;;;;;22.74;86.33;98239.09;5047120;28;20021;-68
2022/06/05 08:55:33;;;;;;;11.23;6.68;;;;;;;22.54;89.04;98234.34;5047112;28;20212;-68
2022/06/05 08:58:21;;;;;;;6.57;5.13;;;;;;;22.55;86.07;98230.69;5047074;28;20352;-68
2022/06/05 09:00:50;;;;;;;6.53;4.55;;;;;;;22.90;84.26;98220.88;5046892;28;20030;-68
2022/06/05 09:03:21;;;;;;;7.45;5.57;;;;;;;23.00;85.98;98232.66;5046770;28;20060;-68
2022/06/05 09:05:50;;;;;;;;;;;;;;;23.35;84.78;98222.78;5047298;28;20320;-68
2022/06/05 09:08:18;;;;;;;10.23;4.88;;;;;;;23.56;84.19;98231.84;5046635;28;19944;-68
2022/06/05 09:10:47;;;;;;;6.63;4.82;;;;;;;23.22;84.17;98222.81;5046651;28;20032;-68
2022/06/05 09:13:12;;;;;;;6.68;5.15;;;;;;;22.99;86.22;98229.09;5046537;28;20025;-68
2022/06/05 09:15:44;;;;;;;8.13;4.70;;;;;;;22.93;88.30;98237.59;5046527;28;20056;-68
2022/06/05 09:18:19;;;;;;;6.63;4.78;;;;;;;22.86;87.08;98224.75;5046456;28;20029;-68
2022/06/05 09:20:59;;;;;;;5.53;3.70;;;;;;;22.97;87.53;98222.13;5046348;28;20072;-68
2022/06/05 09:23:28;;;;;;;6.18;4.38;;;;;;;22.99;87.88;98214.81;5046315;28;20018;-68
2022/06/05 09:26:14;;;;;;;6.78;4.43;;;;;;;22.91;87.22;98214.53;5046231;28;20033;-68
2022/06/05 09:28:39;;;;;;;5.18;3.65;;;;;;;22.47;87.57;98211.59;5046295;28;20335;-68
2022/06/05 09:31:29;;;;;;;5.25;3.72;;;;;;;22.58;89.60;98214.38;5046109;28;20041;-68
2022/06/05 09:33:57;;;;;;;5.10;3.55;;;;;;;22.58;89.15;98219.72;5046128;28;20033;-68
2022/06/05 09:36:26;;;;;;;4.88;3.30;;;;;;;22.46;89.54;98215.25;5046230;28;20036;-68
2022/06/05 09:38:59;;;;;;;5.25;3.72;;;;;;;22.35;89.09;98209.81;5046108;28;20021;-68
2022/06/05 09:41:37;;;;;;;7.13;3.65;;;;;;;22.01;89.47;98207.84;5046193;28;20025;-68
2022/06/05 09:44:21;;;;;;;5.38;3.10;;;;;;;21.83;91.54;98207.34;5046055;28;20047;-68
2022/06/05 09:47:01;;;;;;;9.63;3.40;;;;;;;21.78;92.09;98205.97;5045965;28;20077;-68
2022/06/05 09:49:54;;;;;;;8.50;2.90;;;;;;;21.88;92.85;98213.25;5045696;28;20029;-68
2022/06/05 09:52:22;;;;;;;5.68;2.50;;;;;;;21.80;90.34;98214.75;5045601;28;20038;-68
2022/06/05 09:55:16;;;;;;;6.15;2.60;;;;;;;21.77;90.26;98204.25;5045842;28;20022;-68
2022/06/05 10:01:25;;;;;;;3.42;1.83;;;;;;;21.77;90.11;98199.75;5045684;28;20028;-68
2022/06/05 10:03:51;;;;;;;3.08;2.00;;;;;;;22.23;89.76;98191.94;5044983;28;20096;-68
2022/06/05 10:06:23;;;;;;;3.28;1.85;;;;;;;22.49;86.75;98198.91;5045530;28;20051;-68
2022/06/05 10:08:53;;;;;;;3.53;1.85;;;;;;;22.65;86.40;98196.88;5045805;28;20365;-68
2022/06/05 10:11:36;;;;;;;2.38;1.80;;;;;;;22.82;85.96;98196.44;5045506;28;20029;-68
2022/06/05 10:14:18;;;;;;;3.30;1.70;;;;;;;22.74;84.85;98209.56;5045462;28;20317;-68
2022/06/05 10:16:55;;;;;;;5.20;2.10;;;;;;;22.83;86.56;98216.94;5045371;28;20351;-68
2022/06/05 10:19:34;;;;;;;4.65;1.83;;;;;;;22.92;83.62;98213.56;5045320;28;20025;-68
2022/06/05 10:22:13;;;;;;;6.20;1.55;;;;;;;23.44;84.18;98211.31;5045324;28;20032;-68
2022/06/05 10:24:53;;;;;;;5.03;1.85;;;;;;;23.75;82.10;98204.38;5045213;28;20321;-68
2022/06/05 10:27:19;;;;;;;2.53;1.65;;;;;;;24.19;82.35;98205.28;5045191;28;20048;-68
2022/06/05 10:29:48;;;;;;;1.70;1.40;;;;;;;24.15;78.98;98198.44;5045188;28;20033;-68
2022/06/05 10:32:33;;;;;;;4.07;1.50;;;;;;;24.66;78.60;98194.22;5045248;28;20029;-68
2022/06/05 10:35:13;;;;;;;2.05;1.10;;;;;;;25.82;76.08;98186.84;5044997;28;20021;-68
2022/06/05 10:38:23;;;;;;;2.78;1.17;;;;;;;26.86;70.82;98188.19;5045089;28;20057;-68
2022/06/05 10:40:54;;;;;;;5.07;1.15;;;;;;;26.20;72.92;98188.88;5045006;28;20025;-68
2022/06/05 10:43:25;;;;;;;3.55;1.60;;;;;;;25.39;74.16;98193.38;5044260;28;20025;-68
2022/06/05 10:46:06;;;;;;;1.52;1.05;;;;;;;25.15;75.53;98189.09;5045041;28;20357;-68
2022/06/05 10:48:55;;;;;;;3.03;1.73;;;;;;;24.59;77.66;98187.59;5044810;28;20036;-68
2022/06/05 10:51:32;;;;;;;2.70;1.42;;;;;;;24.41;77.01;98189.09;5044627;28;20352;-68
2022/06/05 10:54:16;;;;;;;1.70;1.30;;;;;;;23.99;79.62;98195.28;5044697;28;20044;-68
2022/06/05 10:56:50;;;;;;;4.15;1.23;;;;;;;23.76;79.02;98196.19;5043493;28;20317;-68
2022/06/05 10:59:30;;;;;;;2.15;1.20;;;;;;;23.59;80.21;98194.00;5044651;28;20093;-68
2022/06/05 11:02:05;;;;;;;4.00;1.10;;;;;;;23.49;79.32;98203.75;5044523;28;20216;-68
2022/06/05 11:04:56;;;;;;;3.42;1.30;;;;;;;23.33;79.50;98203.25;5044700;28;20321;-68
2022/06/05 11:07:29;;;;;;;5.57;1.23;;;;;;;23.16;81.80;98209.03;5044463;28;20236;-68
2022/06/05 11:10:06;;;;;;;1.80;1.17;;;;;;;23.11;80.54;98208.50;5044561;28;20037;-68
2022/06/05 11:16:02;;;;;;;3.00;1.30;;;;;;;22.95;80.67;98197.22;5044320;28;20097;-68
2022/06/05 11:18:38;;;;;;;3.20;1.50;;;;;;;22.94;81.06;98184.78;5044318;28;20317;-68
2022/06/05 11:21:05;;;;;;;2.17;1.17;;;;;;;23.19;78.80;98192.66;5044259;28;20217;-68
2022/06/05 11:23:36;;;;;;;2.53;1.42;;;;;;;23.38;80.02;98200.19;5044457;28;20093;-68
2022/06/05 11:26:21;;;;;;;4.60;1.50;;;;;;;24.15;77.06;98202.97;5044168;28;20021;-68
2022/06/05 11:28:59;;;;;;;2.58;1.20;;;;;;;24.80;75.80;98188.53;5044166;28;20025;-68
2022/06/05 11:32:06;;;;;;;1.33;1.10;;;;;;;24.98;73.44;98178.03;5044192;28;20025;-68
2022/06/05 11:34:45;;;;;;;2.42;1.42;;;;;;;24.75;72.32;98171.91;5044069;28;20029;-68
2022/06/05 11:37:26;;;;;;;1.90;1.08;;;;;;;24.66;72.09;98171.81;5043994;28;20088;-68
2022/06/05 11:40:14;;;;;;;1.45;1.17;;;;;;;24.80;71.87;98175.06;5044092;28;20088;-68
2022/06/05 11:42:58;;;;;;;3.60;1.13;;;;;;;24.62;72.55;98167.66;5044010;28;20030;-68
2022/06/05 11:45:40;;;;;;;3.97;1.20;;;;;;;24.87;72.88;98165.47;5043895;28;20026;-68
2022/06/05 11:48:15;;;;;;;;;;;;;;;24.98;71.53;98160.06;5044414;28;20143;-68
2022/06/05 11:50:49;;;;;;;1.88;1.23;;;;;;;24.86;70.79;98171.00;5043722;28;20006;-68
2022/06/05 11:53:46;;;;;;;2.10;1.17;;;;;;;24.71;71.36;98175.81;5044103;28;20028;-68
2022/06/05 11:56:26;;;;;;;2.15;1.25;;;;;;;24.81;71.48;98170.53;5047273;28;20321;-68
2022/06/05 11:59:09;;;;;;;1.38;1.13;;;;;;;24.49;70.92;98159.72;5047988;28;20071;-68
2022/06/05 12:01:43;;;;;;;3.95;1.42;;;;;;;24.74;73.66;98180.94;5047774;28;20028;-68